Terminal Aerodrome Forecast
Issued by NWS

Home | Current Version | Previous Version | Graphics & Text | Print | Product List | Glossary On
Versions: 1 2 3 4 5 6 7 8 9 10 11 12 13
000
FTUS43 KICT 261133
TAFSLN
TAF
KSLN 261133Z 2612/2712 33013KT P6SM SCT050 OVC100
     FM261500 33021G31KT P6SM BKN050
     FM270000 35009KT P6SM FEW060
     FM270600 06006KT P6SM SCT120=

USA.gov is the U.S. government's official web portal to all federal, state and local government web resources and services.